createdAt,value
2022-08-26T00:00:04.066Z,563.6
2022-08-26T00:01:06.842Z,563.9
2022-08-26T00:02:09.720Z,563.9
2022-08-26T00:03:12.600Z,563.7
2022-08-26T00:04:14.565Z,563.5
2022-08-26T00:05:16.337Z,563.3
2022-08-26T00:06:21.380Z,563.5
2022-08-26T00:07:23.141Z,564
2022-08-26T00:08:24.822Z,564.1
2022-08-26T00:09:26.487Z,563.8
2022-08-26T00:10:28.134Z,564.4
2022-08-26T00:11:29.808Z,564.3
2022-08-26T00:12:38.266Z,564.2
2022-08-26T00:13:49.947Z,564.2
2022-08-26T00:14:51.567Z,564
2022-08-26T00:15:53.114Z,564.2
2022-08-26T00:16:56.112Z,564.4
2022-08-26T00:17:58.124Z,564.8
2022-08-26T00:19:00.193Z,564.8
2022-08-26T00:20:01.771Z,565
2022-08-26T00:21:06.984Z,564.9
2022-08-26T00:22:08.677Z,565.1
2022-08-26T00:23:10.242Z,564.9
2022-08-26T00:24:11.807Z,564.3
2022-08-26T00:25:17.545Z,564.2
2022-08-26T00:26:21.335Z,564.2
2022-08-26T00:27:23.632Z,564.5
2022-08-26T00:28:27.256Z,564.3
2022-08-26T00:29:37.950Z,564.9
2022-08-26T00:30:39.612Z,565.2
2022-08-26T00:31:45.567Z,565.1
2022-08-26T00:32:48.661Z,565
2022-08-26T00:33:50.229Z,565.1
2022-08-26T00:34:52.340Z,565.4
2022-08-26T00:35:54.188Z,565.4
2022-08-26T00:36:56.034Z,565.1
2022-08-26T00:37:57.932Z,565.4
2022-08-26T00:38:59.581Z,565.6
2022-08-26T00:40:06.107Z,565.2
2022-08-26T00:41:07.784Z,565.7
2022-08-26T00:42:10.823Z,565.7
2022-08-26T00:43:12.994Z,565.5
2022-08-26T00:44:14.570Z,565.6
2022-08-26T00:45:17.166Z,565.5
2022-08-26T00:46:19.220Z,565.5
2022-08-26T00:47:21.776Z,565.5
2022-08-26T00:48:23.524Z,565.2
2022-08-26T00:49:25.273Z,565.2
2022-08-26T00:50:28.380Z,565.3
2022-08-26T00:51:31.068Z,565.8
2022-08-26T00:52:33.702Z,565.7
2022-08-26T00:53:35.444Z,565.7
2022-08-26T00:54:37.181Z,566
2022-08-26T00:55:41.972Z,566
2022-08-26T00:56:48.925Z,565.9
2022-08-26T00:57:50.492Z,565.8
2022-08-26T00:58:52.343Z,566
2022-08-26T00:59:53.885Z,566
2022-08-26T01:00:56.044Z,565.9
2022-08-26T01:01:57.975Z,566.5
2022-08-26T01:02:59.714Z,566.3
2022-08-26T01:04:01.717Z,566.3
2022-08-26T01:05:05.701Z,566.2
2022-08-26T01:06:13.538Z,566.1
2022-08-26T01:07:15.336Z,566.1
2022-08-26T01:08:17.077Z,566.4
2022-08-26T01:09:19.016Z,566.7
2022-08-26T01:10:21.534Z,566.6
2022-08-26T01:11:23.087Z,566.5
2022-08-26T01:12:25.872Z,566.6
2022-08-26T01:13:27.662Z,566.7
2022-08-26T01:14:29.418Z,566.4
2022-08-26T01:15:33.572Z,566.3
2022-08-26T01:16:35.597Z,566.4
2022-08-26T01:17:37.787Z,566.3
2022-08-26T01:18:39.712Z,566.2
2022-08-26T01:19:42.204Z,566.2
2022-08-26T01:20:43.767Z,565.9
2022-08-26T01:21:45.431Z,566
2022-08-26T01:22:48.078Z,566.2
2022-08-26T01:23:58.225Z,566.1
2022-08-26T01:24:59.895Z,566.3
2022-08-26T01:26:02.887Z,566.5
2022-08-26T01:27:07.780Z,566.3
2022-08-26T01:28:10.210Z,566.6
2022-08-26T01:29:11.841Z,567
2022-08-26T01:30:14.046Z,566.6
2022-08-26T01:31:17.821Z,566.6
2022-08-26T01:32:19.601Z,566.5
2022-08-26T01:33:23.253Z,566.8
2022-08-26T01:34:25.238Z,566.6
2022-08-26T01:35:26.847Z,566.9
2022-08-26T01:36:28.540Z,566.5
2022-08-26T01:37:31.061Z,566.4
2022-08-26T01:38:32.829Z,566.4
2022-08-26T01:39:34.579Z,566.3
2022-08-26T01:40:36.215Z,566.2
2022-08-26T01:41:38.130Z,566.2
2022-08-26T01:42:40.921Z,566
2022-08-26T01:43:43.073Z,566
2022-08-26T01:44:45.219Z,566
2022-08-26T01:45:48.760Z,566.1
2022-08-26T01:46:51.237Z,566.2
2022-08-26T01:47:57.752Z,566.1
2022-08-26T01:48:59.986Z,566.5
2022-08-26T01:50:03.579Z,566.5
2022-08-26T01:51:07.314Z,566.3
2022-08-26T01:52:13.133Z,566.4
2022-08-26T01:53:14.830Z,566.2
2022-08-26T01:54:23.166Z,566
2022-08-26T01:55:34.457Z,566
2022-08-26T01:56:37.068Z,566
2022-08-26T01:57:38.870Z,566
2022-08-26T01:58:40.706Z,566.2
2022-08-26T01:59:42.413Z,565.9
2022-08-26T02:00:44.930Z,565.9
2022-08-26T02:01:46.762Z,566
2022-08-26T02:02:48.567Z,566.1
2022-08-26T02:03:50.230Z,566.1
2022-08-26T02:04:52.436Z,566
2022-08-26T02:05:55.602Z,565.8
2022-08-26T02:06:59.493Z,565.5
2022-08-26T02:08:02.060Z,565.7
2022-08-26T02:09:04.594Z,565.9
2022-08-26T02:10:06.717Z,565.9
2022-08-26T02:11:08.338Z,566.1
2022-08-26T02:12:10.827Z,566.2
2022-08-26T02:13:15.937Z,566.7
2022-08-26T02:14:17.570Z,566.3
2022-08-26T02:15:22.791Z,566.1
2022-08-26T02:16:25.808Z,566.4
2022-08-26T02:17:28.174Z,566.3
2022-08-26T02:18:30.227Z,566.2
2022-08-26T02:19:32.080Z,566.4
2022-08-26T02:20:34.704Z,566.6
2022-08-26T02:21:36.383Z,566.9
2022-08-26T02:22:38.117Z,567.4
2022-08-26T02:23:39.975Z,567
2022-08-26T02:24:43.013Z,566.9
2022-08-26T02:25:44.840Z,566.5
2022-08-26T02:26:46.492Z,566.6
2022-08-26T02:27:48.601Z,566.8
2022-08-26T02:28:50.149Z,566.9
2022-08-26T02:29:51.804Z,567.2
2022-08-26T02:30:56.176Z,566.7
2022-08-26T02:31:58.784Z,566.6
2022-08-26T02:33:00.518Z,566.8
2022-08-26T02:34:02.265Z,566.7
2022-08-26T02:35:03.889Z,566.6
2022-08-26T02:36:07.721Z,566.5
2022-08-26T02:37:09.924Z,566.4
2022-08-26T02:38:11.855Z,566.4
2022-08-26T02:39:22.749Z,567
2022-08-26T02:40:25.376Z,567
2022-08-26T02:41:27.338Z,567
2022-08-26T02:42:29.547Z,567
2022-08-26T02:43:33.756Z,566.9
2022-08-26T02:44:35.418Z,567.1
2022-08-26T02:45:37.801Z,567.1
2022-08-26T02:46:47.425Z,567.2
2022-08-26T02:47:50.886Z,566.9
2022-08-26T02:48:52.593Z,567
2022-08-26T02:49:54.305Z,566.8
2022-08-26T02:50:56.351Z,566.3
2022-08-26T02:52:02.137Z,566.4
2022-08-26T02:53:03.959Z,566.1
2022-08-26T02:54:07.667Z,566.2
2022-08-26T02:55:09.652Z,566.4
2022-08-26T02:56:11.197Z,566.2
2022-08-26T02:57:12.896Z,566.2
2022-08-26T02:58:15.006Z,566.3
2022-08-26T02:59:17.474Z,566.4
2022-08-26T03:00:19.860Z,566.4
2022-08-26T03:01:22.531Z,566.6
2022-08-26T03:02:26.013Z,566.7
2022-08-26T03:03:28.255Z,566.1
2022-08-26T03:04:33.905Z,566.7
2022-08-26T03:05:37.675Z,566.6
2022-08-26T03:06:41.912Z,566.6
2022-08-26T03:07:45.556Z,566.2
2022-08-26T03:08:47.438Z,566.5
2022-08-26T03:09:52.082Z,566.2
2022-08-26T03:10:53.730Z,566.4
2022-08-26T03:11:55.965Z,566.5
2022-08-26T03:12:58.588Z,566.3
2022-08-26T03:14:04.155Z,566.6
2022-08-26T03:15:18.828Z,566.3
2022-08-26T03:16:21.190Z,566.1
2022-08-26T03:17:23.011Z,566.1
2022-08-26T03:18:24.625Z,566.2
2022-08-26T03:19:26.751Z,565.9
2022-08-26T03:20:28.309Z,565.6
2022-08-26T03:21:30.040Z,565.8
2022-08-26T03:22:31.764Z,565.6
2022-08-26T03:23:34.731Z,565.9
2022-08-26T03:24:36.574Z,566.1
2022-08-26T03:25:39.241Z,566.1
2022-08-26T03:26:53.506Z,566.1
2022-08-26T03:27:55.196Z,565.9
2022-08-26T03:28:56.849Z,565.9
2022-08-26T03:29:58.560Z,565.9
2022-08-26T03:31:00.438Z,566.2
2022-08-26T03:32:02.313Z,566
2022-08-26T03:33:04.288Z,565.7
2022-08-26T03:34:06.128Z,565.8
2022-08-26T03:35:07.738Z,565.9
2022-08-26T03:36:09.292Z,566.3
2022-08-26T03:37:11.025Z,566.2
2022-08-26T03:38:12.706Z,566.4
2022-08-26T03:39:14.450Z,566.3
2022-08-26T03:40:22.340Z,566.3
2022-08-26T03:41:24.266Z,566.6
2022-08-26T03:42:26.009Z,566.3
2022-08-26T03:43:27.715Z,566.6
2022-08-26T03:44:29.378Z,566.4
2022-08-26T03:45:30.920Z,566.6
2022-08-26T03:46:34.110Z,566.7
2022-08-26T03:47:38.636Z,566.4
2022-08-26T03:48:41.652Z,566.8
2022-08-26T03:49:43.343Z,566.4
2022-08-26T03:50:44.919Z,566.3
2022-08-26T03:51:50.582Z,566
2022-08-26T03:52:52.861Z,566.2
2022-08-26T03:53:54.587Z,566.2
2022-08-26T03:54:56.197Z,566.4
2022-08-26T03:55:57.916Z,566.1
2022-08-26T03:56:59.935Z,566.3
2022-08-26T03:58:03.526Z,566.4
2022-08-26T03:59:08.156Z,566.2
2022-08-26T04:00:09.852Z,566.5
2022-08-26T04:01:12.042Z,566.5
2022-08-26T04:02:16.964Z,566.3
2022-08-26T04:03:20.169Z,566.5
2022-08-26T04:04:24.988Z,566.6
2022-08-26T04:05:28.698Z,566.3
2022-08-26T04:06:31.098Z,566.5
2022-08-26T04:07:34.021Z,567
2022-08-26T04:08:35.743Z,566.5
2022-08-26T04:09:39.949Z,566.5
2022-08-26T04:10:41.733Z,566.7
2022-08-26T04:11:43.304Z,566.7
2022-08-26T04:12:45.628Z,566.8
2022-08-26T04:13:49.933Z,567.1
2022-08-26T04:14:57.296Z,567
2022-08-26T04:16:00.297Z,566.9
2022-08-26T04:17:01.967Z,567.2
2022-08-26T04:18:03.692Z,567.3
2022-08-26T04:19:05.460Z,567.5
2022-08-26T04:20:07.151Z,567.4
2022-08-26T04:21:08.834Z,567.1
2022-08-26T04:22:10.621Z,567.1
2022-08-26T04:23:12.367Z,567.1
2022-08-26T04:24:14.319Z,567.3
2022-08-26T04:25:16.813Z,567
2022-08-26T04:26:18.504Z,567
2022-08-26T04:27:20.727Z,567
2022-08-26T04:28:23.166Z,567.2
2022-08-26T04:29:25.332Z,567
2022-08-26T04:30:27.051Z,567.2
2022-08-26T04:31:32.447Z,567.2
2022-08-26T04:32:35.032Z,567.2
2022-08-26T04:33:42.393Z,567.2
2022-08-26T04:34:46.568Z,567
2022-08-26T04:35:48.422Z,566.9
2022-08-26T04:36:50.129Z,567
2022-08-26T04:37:51.715Z,566.6
2022-08-26T04:38:54.129Z,566.8
2022-08-26T04:39:56.083Z,567.1
2022-08-26T04:40:57.912Z,566.8
2022-08-26T04:42:02.203Z,566.8
2022-08-26T04:43:03.898Z,566.4
2022-08-26T04:44:05.581Z,566.5
2022-08-26T04:45:12.033Z,566.3
2022-08-26T04:46:14.826Z,566
2022-08-26T04:47:19.623Z,566.5
2022-08-26T04:48:21.445Z,566.4
2022-08-26T04:49:27.730Z,566.3
2022-08-26T04:50:29.351Z,566.8
2022-08-26T04:51:31.008Z,566.6
2022-08-26T04:52:32.651Z,566.6
2022-08-26T04:53:34.920Z,566.7
2022-08-26T04:54:36.902Z,566.8
2022-08-26T04:55:48.649Z,566.6
2022-08-26T04:56:50.344Z,566.4
2022-08-26T04:57:52.036Z,566.5
2022-08-26T04:58:53.659Z,566.7
2022-08-26T04:59:55.203Z,566.4
2022-08-26T05:00:56.885Z,566.5
2022-08-26T05:01:59.401Z,566.3
2022-08-26T05:03:02.030Z,566.3
2022-08-26T05:04:09.150Z,566.3
2022-08-26T05:05:11.482Z,566.3
2022-08-26T05:06:13.076Z,566.2
2022-08-26T05:07:18.426Z,565.7
2022-08-26T05:08:21.607Z,565.8
2022-08-26T05:09:24.480Z,565.8
2022-08-26T05:10:28.176Z,565.9
2022-08-26T05:11:30.025Z,565.6
2022-08-26T05:12:31.674Z,565.6
2022-08-26T05:13:35.277Z,565.7
2022-08-26T05:14:37.323Z,565.5
2022-08-26T05:15:39.309Z,565.5
2022-08-26T05:16:41.588Z,565.5
2022-08-26T05:17:45.393Z,565.6
2022-08-26T05:18:46.948Z,565.7
2022-08-26T05:19:50.397Z,565.9
2022-08-26T05:20:55.298Z,565.8
2022-08-26T05:21:56.990Z,565.8
2022-08-26T05:22:59.079Z,565.5
2022-08-26T05:24:00.844Z,565.9
2022-08-26T05:25:02.642Z,565.5
2022-08-26T05:26:05.490Z,565.1
2022-08-26T05:27:12.898Z,565.1
2022-08-26T05:28:14.542Z,564.8
2022-08-26T05:29:18.167Z,564.9
2022-08-26T05:30:21.653Z,564.7
2022-08-26T05:31:24.081Z,564.5
2022-08-26T05:32:29.632Z,564.6
2022-08-26T05:33:31.268Z,564.5
2022-08-26T05:34:33.048Z,564.5
2022-08-26T05:35:34.597Z,564.6
2022-08-26T05:36:38.248Z,564.5
2022-08-26T05:37:39.863Z,564.7
2022-08-26T05:38:44.747Z,564.5
2022-08-26T05:39:52.148Z,564.2
2022-08-26T05:40:54.331Z,564
2022-08-26T05:41:56.514Z,564.4
2022-08-26T05:42:59.029Z,564.4
2022-08-26T05:44:00.574Z,564.5
2022-08-26T05:45:03.266Z,564.4
2022-08-26T05:46:06.663Z,564.4
2022-08-26T05:47:09.218Z,564.2
2022-08-26T05:48:10.928Z,564.3
2022-08-26T05:49:13.572Z,564.5
2022-08-26T05:50:15.447Z,564.6
2022-08-26T05:51:17.768Z,564.2
2022-08-26T05:52:19.960Z,564.3
2022-08-26T05:53:21.533Z,564.1
2022-08-26T05:54:23.270Z,564.2
2022-08-26T05:55:25.021Z,564.6
2022-08-26T05:56:26.687Z,564.8
2022-08-26T05:57:29.957Z,564.7
2022-08-26T05:58:31.641Z,564.3
2022-08-26T05:59:39.124Z,564.4
2022-08-26T06:00:44.490Z,564.5
2022-08-26T06:01:46.486Z,564.4
2022-08-26T06:02:50.507Z,564.5
2022-08-26T06:03:52.361Z,564.1
2022-08-26T06:04:54.107Z,564.1
2022-08-26T06:05:56.203Z,564.1
2022-08-26T06:06:58.270Z,564.1
2022-08-26T06:08:00.121Z,563.8
2022-08-26T06:09:02.636Z,563.8
2022-08-26T06:10:33.630Z,564
2022-08-26T06:11:35.273Z,563.9
2022-08-26T06:12:39.660Z,563.8
2022-08-26T06:13:42.474Z,563.8
2022-08-26T06:14:48.953Z,563.9
2022-08-26T06:15:51.214Z,563.9
2022-08-26T06:16:53.331Z,563.6
2022-08-26T06:17:54.892Z,563.4
2022-08-26T06:18:56.628Z,563.3
2022-08-26T06:19:58.337Z,563.2
2022-08-26T06:20:59.987Z,563.4
2022-08-26T06:22:01.671Z,563.3
2022-08-26T06:23:04.669Z,563
2022-08-26T06:24:07.497Z,563
2022-08-26T06:25:10.498Z,563.1
2022-08-26T06:26:12.078Z,562.9
2022-08-26T06:27:15.601Z,562.8
2022-08-26T06:28:18.265Z,562.7
2022-08-26T06:29:25.305Z,562.7
2022-08-26T06:30:27.167Z,562.8
2022-08-26T06:31:30.520Z,562.7
2022-08-26T06:32:32.565Z,562.6
2022-08-26T06:33:34.395Z,562.8
2022-08-26T06:34:36.242Z,562.9
2022-08-26T06:35:37.994Z,563.3
2022-08-26T06:36:44.120Z,562.7
2022-08-26T06:37:46.260Z,562.6
2022-08-26T06:38:47.892Z,562.2
2022-08-26T06:39:51.929Z,562.3
2022-08-26T06:40:55.104Z,562.2
2022-08-26T06:41:56.814Z,562
2022-08-26T06:42:58.496Z,562.2
2022-08-26T06:44:00.151Z,562
2022-08-26T06:45:04.884Z,562.2
2022-08-26T06:46:09.707Z,562.1
2022-08-26T06:47:13.579Z,562.1
2022-08-26T06:48:15.292Z,561.7
2022-08-26T06:49:17.804Z,561.7
2022-08-26T06:50:19.625Z,561.4
2022-08-26T06:51:24.118Z,561.5
2022-08-26T06:52:26.033Z,561.5
2022-08-26T06:53:27.878Z,561.2
2022-08-26T06:54:31.132Z,561.4
2022-08-26T06:55:33.055Z,561.7
2022-08-26T06:56:35.051Z,561.6
2022-08-26T06:57:41.909Z,561.9
2022-08-26T06:58:43.555Z,562
2022-08-26T06:59:45.099Z,561.8
2022-08-26T07:00:48.485Z,561.8
2022-08-26T07:01:50.899Z,561.7
2022-08-26T07:02:53.025Z,561.9
2022-08-26T07:03:57.582Z,561.8
2022-08-26T07:04:59.510Z,561.8
2022-08-26T07:06:01.591Z,561.8
2022-08-26T07:07:03.788Z,561.9
2022-08-26T07:08:05.406Z,561.8
2022-08-26T07:09:10.558Z,561.7
2022-08-26T07:10:12.401Z,561.5
2022-08-26T07:11:13.964Z,561.8
2022-08-26T07:12:15.619Z,561.9
2022-08-26T07:13:31.444Z,561.9
2022-08-26T07:14:34.468Z,561.6
2022-08-26T07:15:36.637Z,561.9
2022-08-26T07:16:38.268Z,561.7
2022-08-26T07:17:40.873Z,561.8
2022-08-26T07:18:46.453Z,561.6
2022-08-26T07:19:49.744Z,561.8
2022-08-26T07:20:53.229Z,561.7
2022-08-26T07:21:56.325Z,561.8
2022-08-26T07:22:58.098Z,561.8
2022-08-26T07:24:02.078Z,561.4
2022-08-26T07:25:05.749Z,561.3
2022-08-26T07:26:08.247Z,561.3
2022-08-26T07:27:10.188Z,561.3
2022-08-26T07:28:12.083Z,561.5
2022-08-26T07:29:13.785Z,561.3
2022-08-26T07:30:15.515Z,561.2
2022-08-26T07:31:17.808Z,561.5
2022-08-26T07:32:23.299Z,562
2022-08-26T07:33:24.916Z,561.5
2022-08-26T07:34:26.864Z,561.7
2022-08-26T07:35:28.473Z,561.5
2022-08-26T07:36:30.619Z,561.2
2022-08-26T07:37:39.821Z,561
2022-08-26T07:38:43.026Z,561.3
2022-08-26T07:39:44.651Z,561.1
2022-08-26T07:40:46.604Z,561.1
2022-08-26T07:41:49.515Z,561.4
2022-08-26T07:42:51.221Z,561
2022-08-26T07:43:54.186Z,561.5
2022-08-26T07:44:55.748Z,561.7
2022-08-26T07:45:57.461Z,561.7
2022-08-26T07:46:59.122Z,561.9
2022-08-26T07:48:04.458Z,561.7
2022-08-26T07:49:07.600Z,561.3
2022-08-26T07:50:11.546Z,561.5
2022-08-26T07:51:13.419Z,561.8
2022-08-26T07:52:15.110Z,561.7
2022-08-26T07:53:20.164Z,562.1
2022-08-26T07:54:27.709Z,562.1
2022-08-26T07:55:29.276Z,561.8
2022-08-26T07:56:31.622Z,561.7
2022-08-26T07:57:35.162Z,561.5
2022-08-26T07:58:36.892Z,561.9
2022-08-26T07:59:38.974Z,561.9
2022-08-26T08:00:40.665Z,561.9
2022-08-26T08:01:46.145Z,561.9
2022-08-26T08:02:55.764Z,561.7
2022-08-26T08:03:58.799Z,561.9
2022-08-26T08:05:01.041Z,562.2
2022-08-26T08:06:02.908Z,562.2
2022-08-26T08:07:12.295Z,562.2
2022-08-26T08:08:31.743Z,562.2
2022-08-26T08:09:33.527Z,562
2022-08-26T08:10:35.412Z,561.9
2022-08-26T08:11:37.882Z,562.1
2022-08-26T08:12:39.572Z,562.4
2022-08-26T08:13:41.400Z,562
2022-08-26T08:14:44.293Z,562.2
2022-08-26T08:15:46.266Z,562.4
2022-08-26T08:16:55.732Z,562.7
2022-08-26T08:18:01.615Z,562.5
2022-08-26T08:19:05.771Z,562.5
2022-08-26T08:20:07.353Z,562.4
2022-08-26T08:21:24.560Z,562.4
2022-08-26T08:22:28.051Z,562.4
2022-08-26T08:23:30.725Z,562.3
2022-08-26T08:24:32.322Z,562.5
2022-08-26T08:25:34.256Z,562.1
2022-08-26T08:26:36.907Z,562.5
2022-08-26T08:27:38.573Z,562
2022-08-26T08:28:42.015Z,562.4
2022-08-26T08:29:43.695Z,562.5
2022-08-26T08:30:45.734Z,562.5
2022-08-26T08:32:03.389Z,562.4
2022-08-26T08:33:06.332Z,562.9
2022-08-26T08:34:07.994Z,562.8
2022-08-26T08:35:12.160Z,562.8
2022-08-26T08:36:20.971Z,562.9
2022-08-26T08:37:22.641Z,562.5
2022-08-26T08:38:24.739Z,562.8
2022-08-26T08:39:27.651Z,563.1
2022-08-26T08:40:29.892Z,562.7
2022-08-26T08:41:31.761Z,563.2
2022-08-26T08:42:33.354Z,563.3
2022-08-26T08:43:38.296Z,563.6
2022-08-26T08:44:39.880Z,563.8
2022-08-26T08:45:41.958Z,563.7
2022-08-26T08:46:43.637Z,563.7
2022-08-26T08:47:45.302Z,564
2022-08-26T08:48:46.990Z,564
2022-08-26T08:49:48.674Z,564.4
2022-08-26T08:50:50.679Z,564.5
2022-08-26T08:51:52.444Z,564.2
2022-08-26T08:52:54.505Z,564.1
2022-08-26T08:53:56.442Z,564.5
2022-08-26T08:54:58.174Z,564.6
2022-08-26T08:56:00.002Z,564.6
2022-08-26T08:57:03.399Z,564.4
2022-08-26T08:58:05.822Z,564.2
2022-08-26T08:59:12.297Z,564
2022-08-26T09:00:13.921Z,564.3
2022-08-26T09:01:15.939Z,564.5
2022-08-26T09:02:18.009Z,564.2
2022-08-26T09:03:20.979Z,564.5
2022-08-26T09:04:24.161Z,564.2
2022-08-26T09:05:26.702Z,564.4
2022-08-26T09:06:28.654Z,564.8
2022-08-26T09:07:37.769Z,564.6
2022-08-26T09:08:39.662Z,564.7
2022-08-26T09:09:41.353Z,564.8
2022-08-26T09:10:44.354Z,564.4
2022-08-26T09:11:46.929Z,565.1
2022-08-26T09:12:48.769Z,564.9
2022-08-26T09:13:50.591Z,565.2
2022-08-26T09:14:56.195Z,565.4
2022-08-26T09:16:00.062Z,565.2
2022-08-26T09:17:03.170Z,565.4
2022-08-26T09:18:07.171Z,565.5
2022-08-26T09:19:12.565Z,565.7
2022-08-26T09:20:14.743Z,565.4
2022-08-26T09:21:18.526Z,565.5
2022-08-26T09:23:22.219Z,565.4
2022-08-26T09:24:29.600Z,565.7
2022-08-26T09:25:32.082Z,565.7
2022-08-26T09:26:35.859Z,565.9
2022-08-26T09:27:38.331Z,565.9
2022-08-26T09:28:40.889Z,566.1
2022-08-26T09:29:44.744Z,566.3
2022-08-26T09:30:46.879Z,566.4
2022-08-26T09:31:49.613Z,566.1
2022-08-26T09:32:56.788Z,566.5
2022-08-26T09:33:59.107Z,566.8
2022-08-26T09:35:00.896Z,566.6
2022-08-26T09:36:03.261Z,566.9
2022-08-26T09:37:05.414Z,566.8
2022-08-26T09:38:13.150Z,567
2022-08-26T09:39:15.466Z,567
2022-08-26T09:40:18.202Z,567
2022-08-26T09:41:22.036Z,567.1
2022-08-26T09:42:24.088Z,566.9
2022-08-26T09:43:25.952Z,566.9
2022-08-26T09:44:27.787Z,566.7
2022-08-26T09:45:30.558Z,566.7
2022-08-26T09:46:33.792Z,566.5
2022-08-26T09:47:35.697Z,566.9
2022-08-26T09:48:41.947Z,567.1
2022-08-26T09:49:44.205Z,567.1
2022-08-26T09:50:48.209Z,567.2
2022-08-26T09:51:50.773Z,567
2022-08-26T09:52:52.729Z,567.1
2022-08-26T09:53:54.913Z,567.2
2022-08-26T09:54:56.732Z,567.1
2022-08-26T09:56:00.426Z,567.1
2022-08-26T09:57:02.275Z,567.1
2022-08-26T09:58:10.379Z,567.2
2022-08-26T09:59:12.332Z,567.2
2022-08-26T10:00:14.906Z,567.5
2022-08-26T10:01:20.239Z,567.3
2022-08-26T10:02:22.380Z,567.1
2022-08-26T10:03:24.230Z,567.5
2022-08-26T10:04:27.651Z,567.6
2022-08-26T10:05:30.079Z,567.2
2022-08-26T10:06:31.931Z,567.1
2022-08-26T10:07:33.679Z,567.8
2022-08-26T10:08:35.503Z,567.7
2022-08-26T10:09:39.016Z,568.1
2022-08-26T10:10:45.583Z,568.2
2022-08-26T10:11:50.502Z,568.1
2022-08-26T10:12:52.354Z,568.2
2022-08-26T10:13:55.197Z,567.9
2022-08-26T10:14:57.109Z,568.3
2022-08-26T10:16:00.971Z,568.3
2022-08-26T10:17:05.531Z,568.5
2022-08-26T10:18:10.788Z,568.3
2022-08-26T10:19:15.943Z,568.6
2022-08-26T10:20:24.556Z,568.9
2022-08-26T10:21:26.515Z,568.3
2022-08-26T10:22:28.966Z,568.4
2022-08-26T10:23:32.514Z,568
2022-08-26T10:24:35.569Z,568.3
2022-08-26T10:25:38.312Z,568.1
2022-08-26T10:26:40.872Z,568.2
2022-08-26T10:27:54.405Z,568.5
2022-08-26T10:28:57.897Z,568.2
2022-08-26T10:29:59.841Z,568.5
2022-08-26T10:31:01.686Z,568.7
2022-08-26T10:32:05.725Z,568.7
2022-08-26T10:33:08.650Z,568.5
2022-08-26T10:34:14.507Z,569
2022-08-26T10:35:18.101Z,568.6
2022-08-26T10:36:20.973Z,568.8
2022-08-26T10:37:24.096Z,568.8
2022-08-26T10:38:29.690Z,568.8
2022-08-26T10:39:31.456Z,568.8
2022-08-26T10:40:35.938Z,568.8
2022-08-26T10:41:38.625Z,568.9
2022-08-26T10:42:42.211Z,568.9
2022-08-26T10:43:44.650Z,568.6
2022-08-26T10:44:48.777Z,568.8
2022-08-26T10:45:51.301Z,568.9
2022-08-26T10:46:53.198Z,569
2022-08-26T10:47:55.043Z,569.2
2022-08-26T10:49:06.938Z,569
2022-08-26T10:50:12.985Z,569.3
2022-08-26T10:51:15.165Z,569.6
2022-08-26T10:52:17.406Z,569.3
2022-08-26T10:53:32.864Z,569
2022-08-26T10:54:34.921Z,569.5
2022-08-26T10:55:36.770Z,569.4
2022-08-26T10:56:38.496Z,569.1
2022-08-26T10:57:40.367Z,569.2
2022-08-26T10:58:45.192Z,569.5
2022-08-26T10:59:46.933Z,569.5
2022-08-26T11:00:48.909Z,569.3
2022-08-26T11:01:53.776Z,569.5
2022-08-26T11:02:56.788Z,569.5
2022-08-26T11:03:59.289Z,569.2
2022-08-26T11:05:01.818Z,569.6
2022-08-26T11:06:05.618Z,569.4
2022-08-26T11:07:07.463Z,569.4
2022-08-26T11:08:10.488Z,569.5
2022-08-26T11:09:12.594Z,569.7
2022-08-26T11:10:15.674Z,569.8
2022-08-26T11:11:20.702Z,570.2
2022-08-26T11:12:22.649Z,570
2022-08-26T11:13:24.603Z,569.9
2022-08-26T11:14:53.793Z,570
2022-08-26T11:16:01.891Z,569.8
2022-08-26T11:17:07.639Z,569.8
2022-08-26T11:18:10.435Z,569.8
2022-08-26T11:19:12.372Z,569.7
2022-08-26T11:20:15.547Z,569.7
2022-08-26T11:21:30.300Z,569.5
2022-08-26T11:22:32.140Z,569.9
2022-08-26T11:23:35.116Z,570
2022-08-26T11:24:37.273Z,570.3
2022-08-26T11:25:39.226Z,570.1
2022-08-26T11:26:57.153Z,570.2
2022-08-26T11:27:59.226Z,570
2022-08-26T11:29:03.722Z,570.3
2022-08-26T11:30:06.081Z,570.1
2022-08-26T11:31:08.745Z,569.9
2022-08-26T11:32:12.755Z,570.3
2022-08-26T11:33:20.647Z,569.8
2022-08-26T11:34:22.505Z,570.6
2022-08-26T11:35:24.340Z,570.2
2022-08-26T11:36:27.625Z,570.3
2022-08-26T11:37:33.473Z,570.3
2022-08-26T11:38:35.288Z,570.6
2022-08-26T11:39:46.250Z,570.6
2022-08-26T11:40:48.548Z,570.8
2022-08-26T11:41:53.776Z,571.1
2022-08-26T11:42:55.930Z,570.7
2022-08-26T11:43:57.880Z,570.3
2022-08-26T11:45:06.185Z,570.2
2022-08-26T11:46:10.546Z,570.3
2022-08-26T11:47:13.671Z,570.1
2022-08-26T11:48:15.419Z,570.6
2022-08-26T11:49:17.577Z,570.5
2022-08-26T11:50:19.839Z,570.7
2022-08-26T11:51:22.473Z,571
2022-08-26T11:52:26.337Z,570.7
2022-08-26T11:53:30.404Z,571.3
2022-08-26T11:54:36.351Z,571.1
2022-08-26T11:55:38.717Z,571.3
2022-08-26T11:56:41.389Z,571.1
2022-08-26T11:57:43.235Z,571.3
2022-08-26T11:58:45.200Z,571.1
2022-08-26T11:59:46.945Z,571.3
2022-08-26T12:00:48.800Z,571.6
2022-08-26T12:01:50.538Z,571.5
2022-08-26T12:02:53.919Z,571.6
2022-08-26T12:04:00.083Z,571.6
2022-08-26T12:05:03.552Z,571.3
2022-08-26T12:06:05.306Z,571.9
2022-08-26T12:07:09.305Z,571.9
2022-08-26T12:08:12.088Z,572
2022-08-26T12:09:15.568Z,572.3
2022-08-26T12:10:17.419Z,572.7
2022-08-26T12:11:19.310Z,572.8
2022-08-26T12:12:21.151Z,572.8
2022-08-26T12:13:23.067Z,572.9
2022-08-26T12:14:24.918Z,572.7
2022-08-26T12:15:30.456Z,573.1
2022-08-26T12:16:33.393Z,573.3
2022-08-26T12:17:38.561Z,573.4
2022-08-26T12:18:46.251Z,573.2
2022-08-26T12:19:48.721Z,573.4
2022-08-26T12:20:50.665Z,573.4
2022-08-26T12:21:52.515Z,573.6
2022-08-26T12:22:54.569Z,574
2022-08-26T12:23:56.420Z,574
2022-08-26T12:24:58.377Z,574.5
2022-08-26T12:26:00.532Z,573.7
2022-08-26T12:27:02.389Z,574.2
2022-08-26T12:28:05.435Z,574.3
2022-08-26T12:29:27.850Z,574.4
2022-08-26T12:30:32.814Z,574.6
2022-08-26T12:31:35.624Z,574.6
2022-08-26T12:32:59.245Z,574.5
2022-08-26T12:34:02.321Z,574.9
2022-08-26T12:36:09.104Z,575
2022-08-26T12:37:10.947Z,575
2022-08-26T12:38:13.719Z,574.9
2022-08-26T12:39:15.673Z,575
2022-08-26T12:40:17.903Z,574.3
2022-08-26T12:41:19.777Z,574.9
2022-08-26T12:42:21.727Z,574.2
2022-08-26T12:43:23.578Z,574.3
2022-08-26T12:44:25.527Z,574.4
2022-08-26T12:45:27.693Z,574.5
2022-08-26T12:46:29.646Z,574.5
2022-08-26T12:47:44.662Z,574.4
2022-08-26T12:48:46.552Z,574.5
2022-08-26T12:49:48.441Z,574.6
2022-08-26T12:50:50.453Z,574.8
2022-08-26T12:51:52.303Z,574.8
2022-08-26T12:52:54.156Z,574.6
2022-08-26T12:53:56.003Z,574.4
2022-08-26T12:54:57.792Z,574.9
2022-08-26T12:55:59.708Z,575
2022-08-26T12:57:01.557Z,574.7
2022-08-26T12:58:03.713Z,574.7
2022-08-26T12:59:05.643Z,574.8
2022-08-26T13:00:07.517Z,574.7
2022-08-26T13:01:10.168Z,574.6
2022-08-26T13:02:12.514Z,574.6
2022-08-26T13:03:14.702Z,574.7
2022-08-26T13:04:16.557Z,574.4
2022-08-26T13:05:18.433Z,574.4
2022-08-26T13:06:20.250Z,574.7
2022-08-26T13:07:22.101Z,574.7
2022-08-26T13:08:23.949Z,575.2
2022-08-26T13:09:25.808Z,575.2
2022-08-26T13:10:31.748Z,574.9
2022-08-26T13:11:33.699Z,574.9
2022-08-26T13:12:35.650Z,575
2022-08-26T13:13:39.257Z,575.1
2022-08-26T13:14:41.097Z,575.7
2022-08-26T13:15:42.838Z,575.6
2022-08-26T13:16:45.003Z,575.5
2022-08-26T13:17:46.849Z,575.5
2022-08-26T13:18:48.697Z,575.9
2022-08-26T13:19:50.547Z,576
2022-08-26T13:20:52.402Z,575.9
2022-08-26T13:21:54.253Z,575.5
2022-08-26T13:22:59.893Z,575.6
2022-08-26T13:24:04.603Z,575.9
2022-08-26T13:25:06.452Z,575.5
2022-08-26T13:26:08.304Z,575.4
2022-08-26T13:27:10.152Z,575.3
2022-08-26T13:28:12.004Z,575.4
2022-08-26T13:29:13.852Z,575.4
2022-08-26T13:30:16.113Z,576
2022-08-26T13:31:19.271Z,576
2022-08-26T13:32:21.351Z,575.8
2022-08-26T13:33:24.636Z,575.6
2022-08-26T13:34:26.584Z,575.9
2022-08-26T13:35:28.363Z,575.6
2022-08-26T13:36:30.183Z,575.6
2022-08-26T13:37:36.131Z,575.9
2022-08-26T13:38:38.901Z,575.7
2022-08-26T13:39:40.750Z,575.5
2022-08-26T13:40:42.748Z,575.7